Time;durP1;ratioP1;P1;durP2;ratioP2;P2;SDS_P1;SDS_P2;PMS_P1;PMS_P2;Temp;Humidity;BMP_temperature;BMP_pressure;BME280_temperature;BME280_humidity;BME280_pressure;Samples;Min_cycle;Max_cycle;Signal;HPM_P1;HPM_P2
2020/12/21 00:00:04;;;;;;;;;;;;;;;1.47;100.00;93684.03;1063704;55;20638;-82
2020/12/21 00:01:04;;;;;;;;;;;;;;;1.46;100.00;93679.88;1065931;55;20165;-83
2020/12/21 00:02:06;;;;;;;;;;;;;;;1.31;99.86;93685.16;1063674;55;20162;-83
2020/12/21 00:03:08;;;;;;;;;;;;;;;1.28;100.00;93685.88;1065878;55;20263;-82
2020/12/21 00:04:09;;;;;;;;;;;;;;;1.28;100.00;93685.88;1065724;55;20230;-84
2020/12/21 00:05:09;;;;;;;;;;;;;;;1.29;100.00;93685.53;1063642;55;20180;-83
2020/12/21 00:06:11;;;;;;;;;;;;;;;1.28;100.00;93685.88;1065728;55;20711;-84
2020/12/21 00:07:13;;;;;;;;;;;;;;;1.30;100.00;93684.41;1068098;55;20256;-85
2020/12/21 00:08:13;;;;;;;;;;;;;;;1.35;100.00;93683.37;1067999;55;20250;-83
2020/12/21 00:09:17;;;;;;;;;;;;;;;1.33;100.00;93675.06;1063767;55;20275;-86
2020/12/21 00:10:17;;;;;;;;;;;;;;;1.37;100.00;93678.53;1065772;55;20667;-82
2020/12/21 00:11:18;;;;;;;;;;;;;;;1.38;100.00;93678.19;1067853;55;20165;-84
2020/12/21 00:12:18;;;;;;;;;;;;;;;1.35;100.00;93681.50;1065636;55;20161;-83
2020/12/21 00:13:19;;;;;;;;;;;;;;;1.36;100.00;93674.37;1063564;55;20272;-83
2020/12/21 00:14:19;;;;;;;;;;;;;;;1.39;100.00;93682.34;1061371;56;20665;-83
2020/12/21 00:15:20;;;;;;;;;;;;;;;1.39;100.00;93678.94;1063504;55;20923;-82
2020/12/21 00:16:24;;;;;;;;;;;;;;;1.36;100.00;93677.00;1065894;55;20705;-82
2020/12/21 00:17:26;;;;;;;;;;;;;;;1.39;100.00;93676.31;1066018;55;20266;-86
2020/12/21 00:18:27;;;;;;;;;;;;;;;1.40;100.00;93680.47;1065575;55;20192;-81
2020/12/21 00:19:29;;;;;;;;;;;;;;;1.42;100.00;93679.03;1065772;55;20164;-86
2020/12/21 00:20:30;;;;;;;;;;;;;;;1.37;100.00;93671.41;1063665;55;20568;-81
2020/12/21 00:21:32;;;;;;;;;;;;;;;1.45;100.00;93678.34;1065810;55;20173;-82
2020/12/21 00:22:33;;;;;;;;;;;;;;;1.52;100.00;93683.00;1065795;55;21122;-82
2020/12/21 00:23:33;;;;;;;;;;;;;;;1.46;100.00;93677.25;1067956;55;20253;-83
2020/12/21 00:24:34;;;;;;;;;;;;;;;1.48;100.00;93680.28;1065490;55;20176;-83
2020/12/21 00:25:36;;;;;;;;;;;;;;;1.48;100.00;93675.00;1063770;55;21065;-83
2020/12/21 00:26:37;;;;;;;;;;;;;;;1.49;100.00;93667.87;1067981;55;20162;-82
2020/12/21 00:27:37;;;;;;;;;;;;;;;1.54;100.00;93672.09;1067900;55;20172;-82
2020/12/21 00:28:39;;;;;;;;;;;;;;;1.55;100.00;93673.66;1063644;55;20225;-82
2020/12/21 00:29:39;;;;;;;;;;;;;;;1.55;100.00;93665.75;1063910;55;20157;-84
2020/12/21 00:30:40;;;;;;;;;;;;;;;1.64;100.00;93668.94;1067942;55;20224;-84
2020/12/21 00:31:41;;;;;;;;;;;;;;;1.74;100.00;93674.44;1067916;55;20257;-83
2020/12/21 00:32:43;;;;;;;;;;;;;;;1.75;100.00;93664.66;1065916;55;20161;-83
2020/12/21 00:33:43;;;;;;;;;;;;;;;1.84;100.00;93677.63;1065805;55;20708;-82
2020/12/21 00:34:44;;;;;;;;;;;;;;;1.88;100.00;93671.31;1065872;55;20193;-83
2020/12/21 00:35:44;;;;;;;;;;;;;;;1.74;100.00;93671.78;1065791;55;20267;-84
2020/12/21 00:36:50;;;;;;;;;;;;;;;1.79;100.00;93667.34;1067997;55;20157;-82
2020/12/21 00:37:50;;;;;;;;;;;;;;;1.77;100.00;93670.34;1067966;55;20224;-85
2020/12/21 00:38:51;;;;;;;;;;;;;;;1.81;100.00;93668.56;1065782;55;20177;-83
2020/12/21 00:39:52;;;;;;;;;;;;;;;1.93;100.00;93665.00;1065825;55;20642;-82
2020/12/21 00:40:53;;;;;;;;;;;;;;;1.77;100.00;93670.34;1065752;55;20323;-83
2020/12/21 00:41:53;;;;;;;;;;;;;;;1.80;100.00;93672.31;1065712;55;20567;-82
2020/12/21 00:42:54;;;;;;;;;;;;;;;1.86;100.00;93667.50;1065667;55;20555;-82
2020/12/21 00:43:54;;;;;;;;;;;;;;;1.82;100.00;93674.59;1067814;55;20308;-83
2020/12/21 00:44:55;;;;;;;;;;;;;;;1.78;100.00;93674.50;1067860;55;20172;-84
2020/12/21 00:45:55;;;;;;;;;;;;;;;1.77;100.00;93676.38;1065634;55;20677;-83
2020/12/21 00:46:55;;;;;;;;;;;;;;;1.83;100.00;93676.09;1065632;55;20158;-83
2020/12/21 00:47:56;;;;;;;;;;;;;;;1.84;100.00;93670.47;1065840;55;20193;-83
2020/12/21 00:48:58;;;;;;;;;;;;;;;1.82;100.00;93667.44;1065669;55;20157;-82
2020/12/21 00:49:59;;;;;;;;;;;;;;;1.81;100.00;93667.78;1065693;55;20153;-83
2020/12/21 00:50:59;;;;;;;;;;;;;;;1.78;100.00;93663.97;1067813;55;20165;-84
2020/12/21 00:52:00;;;;;;;;;;;;;;;1.71;100.00;93661.19;1067690;55;20249;-83
2020/12/21 00:53:01;;;;;;;;;;;;;;;1.73;100.00;93658.97;1063765;55;20651;-83
2020/12/21 00:54:02;;;;;;;;;;;;;;;1.76;100.00;93664.31;1063377;56;20176;-83
2020/12/21 00:55:03;;;;;;;;;;;;;;;1.65;100.00;93665.97;1065808;55;20326;-84
2020/12/21 00:56:04;;;;;;;;;;;;;;;1.71;100.00;93671.72;1063636;55;20259;-82
2020/12/21 00:57:08;;;;;;;;;;;;;;;1.62;100.00;93671.91;1065998;55;20261;-83
2020/12/21 00:58:08;;;;;;;;;;;;;;;1.65;100.00;93675.75;1067901;55;20761;-82
2020/12/21 00:59:09;;;;;;;;;;;;;;;1.57;100.00;93674.81;1063436;55;20259;-83
2020/12/21 01:00:09;;;;;;;;;;;;;;;1.55;100.00;93678.94;1065715;55;20177;-83
2020/12/21 01:01:11;;;;;;;;;;;;;;;1.53;100.00;93681.87;1070373;55;20148;-82
2020/12/21 01:02:12;;;;;;;;;;;;;;;1.49;100.00;93679.19;1065747;55;20169;-83
2020/12/21 01:03:14;;;;;;;;;;;;;;;1.48;100.00;93676.88;1065729;55;20184;-84
2020/12/21 01:04:15;;;;;;;;;;;;;;;1.47;100.00;93675.37;1067589;55;20175;-83
2020/12/21 01:05:15;;;;;;;;;;;;;;;1.43;100.00;93683.19;1065743;55;20208;-82
2020/12/21 01:06:16;;;;;;;;;;;;;;;1.44;100.00;93682.06;1065773;55;20653;-84
2020/12/21 01:07:18;;;;;;;;;;;;;;;1.49;100.00;93673.94;1067953;55;20253;-83
2020/12/21 01:08:18;;;;;;;;;;;;;;;1.43;100.00;93680.56;1067578;55;20153;-82
2020/12/21 01:09:19;;;;;;;;;;;;;;;1.42;100.00;93675.63;1067773;55;20153;-84
2020/12/21 01:10:19;;;;;;;;;;;;;;;1.34;100.00;93682.63;1065639;55;20633;-82
2020/12/21 01:11:20;;;;;;;;;;;;;;;1.32;100.00;93684.84;1065468;55;20177;-83
2020/12/21 01:12:20;;;;;;;;;;;;;;;1.27;100.00;93685.06;1065419;55;20177;-82
2020/12/21 01:13:21;;;;;;;;;;;;;;;1.26;100.00;93681.69;1067894;55;20177;-82
2020/12/21 01:14:21;;;;;;;;;;;;;;;1.28;100.00;93683.25;1070087;55;20196;-82
2020/12/21 01:15:22;;;;;;;;;;;;;;;1.26;100.00;93678.28;1069960;55;20668;-84
2020/12/21 01:16:23;;;;;;;;;;;;;;;1.21;100.00;93676.69;1067740;55;20972;-82
2020/12/21 01:17:23;;;;;;;;;;;;;;;1.09;100.00;93681.28;1065606;55;20176;-83
2020/12/21 01:18:24;;;;;;;;;;;;;;;1.10;100.00;93677.53;1065668;55;20180;-82
2020/12/21 01:19:25;;;;;;;;;;;;;;;1.13;100.00;93679.50;1063497;55;20173;-83
2020/12/21 01:20:25;;;;;;;;;;;;;;;1.13;100.00;93682.13;1065822;55;20169;-82
2020/12/21 01:21:27;;;;;;;;;;;;;;;1.08;100.00;93675.25;1065557;55;20150;-84
2020/12/21 01:22:28;;;;;;;;;;;;;;;1.07;100.00;93672.97;1063543;55;20166;-82
2020/12/21 01:23:28;;;;;;;;;;;;;;;0.96;100.00;93672.72;1065669;55;20149;-83
2020/12/21 01:24:28;;;;;;;;;;;;;;;0.98;100.00;93676.53;1063335;55;20205;-84
2020/12/21 01:25:30;;;;;;;;;;;;;;;0.93;100.00;93673.41;1063386;55;20161;-84
2020/12/21 01:26:31;;;;;;;;;;;;;;;0.92;100.00;93675.28;1063552;55;20197;-84
2020/12/21 01:27:32;;;;;;;;;;;;;;;0.92;100.00;93679.75;1065670;55;20583;-83
2020/12/21 01:28:33;;;;;;;;;;;;;;;0.91;100.00;93680.88;1065657;55;20181;-82
2020/12/21 01:29:33;;;;;;;;;;;;;;;0.92;100.00;93683.19;1063514;55;20192;-83
2020/12/21 01:30:34;;;;;;;;;;;;;;;0.92;100.00;93691.09;1065680;55;20161;-83
2020/12/21 01:31:34;;;;;;;;;;;;;;;0.89;100.00;93689.13;1067755;55;20664;-83
2020/12/21 01:32:36;;;;;;;;;;;;;;;0.94;100.00;93696.00;1067874;55;20172;-82
2020/12/21 01:33:36;;;;;;;;;;;;;;;0.91;100.00;93694.03;1067756;55;20161;-82
2020/12/21 01:34:37;;;;;;;;;;;;;;;0.98;100.00;93691.59;1065504;55;20165;-83
2020/12/21 01:35:38;;;;;;;;;;;;;;;1.00;100.00;93700.66;1065540;55;20177;-82
2020/12/21 01:36:39;;;;;;;;;;;;;;;0.97;100.00;93701.34;1067826;55;20179;-84
2020/12/21 01:37:39;;;;;;;;;;;;;;;0.97;100.00;93697.97;1065344;55;20642;-83
2020/12/21 01:38:40;;;;;;;;;;;;;;;1.02;100.00;93696.94;1065606;55;20571;-81
2020/12/21 01:39:48;;;;;;;;;;;;;;;1.02;100.00;93697.69;1069998;55;20172;-82
2020/12/21 01:40:48;;;;;;;;;;;;;;;0.98;100.00;93700.25;1065518;55;20157;-83
2020/12/21 01:41:49;;;;;;;;;;;;;;;1.06;100.00;93695.16;1063385;55;20244;-82
2020/12/21 01:42:49;;;;;;;;;;;;;;;1.06;100.00;93690.66;1067687;55;20172;-84
2020/12/21 01:43:54;;;;;;;;;;;;;;;1.03;100.00;93687.94;1069797;55;20628;-82
2020/12/21 01:44:55;;;;;;;;;;;;;;;1.13;100.00;93692.66;1069968;55;20195;-81
2020/12/21 01:45:57;;;;;;;;;;;;;;;1.16;100.00;93687.47;1065588;55;20594;-83
2020/12/21 01:46:59;;;;;;;;;;;;;;;1.19;100.00;93693.94;1063602;55;20192;-83
2020/12/21 01:48:00;;;;;;;;;;;;;;;1.18;100.00;93687.91;1065653;55;20583;-83
2020/12/21 01:49:00;;;;;;;;;;;;;;;1.21;100.00;93683.81;1065500;55;20216;-83
2020/12/21 01:50:10;;;;;;;;;;;;;;;1.19;100.00;93675.53;1065630;55;20651;-83
2020/12/21 01:51:19;;;;;;;;;;;;;;;1.19;100.00;93678.16;1064000;55;20169;-86
2020/12/21 01:52:19;;;;;;;;;;;;;;;1.15;100.00;93666.78;1065870;55;20275;-83
2020/12/21 01:53:20;;;;;;;;;;;;;;;1.15;100.00;93683.34;1065582;55;20250;-82
2020/12/21 01:54:21;;;;;;;;;;;;;;;1.10;100.00;93674.91;1065578;55;20590;-82
2020/12/21 01:55:23;;;;;;;;;;;;;;;1.13;100.00;93676.88;1065551;55;21166;-83
2020/12/21 01:56:25;;;;;;;;;;;;;;;1.15;100.00;93664.91;1065742;55;20180;-83
2020/12/21 01:57:25;;;;;;;;;;;;;;;1.17;100.00;93667.94;1063474;55;20191;-81
2020/12/21 01:58:26;;;;;;;;;;;;;;;1.10;100.00;93659.13;1063431;55;20162;-83
2020/12/21 01:59:27;;;;;;;;;;;;;;;1.09;100.00;93670.75;1065538;55;20258;-83
2020/12/21 02:00:29;;;;;;;;;;;;;;;1.10;100.00;93675.69;1065587;55;20178;-83
2020/12/21 02:01:32;;;;;;;;;;;;;;;1.12;100.00;93680.63;1065764;55;20200;-83
2020/12/21 02:02:33;;;;;;;;;;;;;;;1.10;100.00;93669.66;1067784;55;20165;-83
2020/12/21 02:03:34;;;;;;;;;;;;;;;1.09;100.00;93671.50;1065588;55;21357;-85
2020/12/21 02:04:35;;;;;;;;;;;;;;;1.10;100.00;93669.66;1065364;55;20157;-83
2020/12/21 02:05:36;;;;;;;;;;;;;;;1.02;100.00;93673.25;1067820;55;20165;-82
2020/12/21 02:06:36;;;;;;;;;;;;;;;1.02;100.00;93673.25;1065495;55;20189;-82
2020/12/21 02:07:37;;;;;;;;;;;;;;;1.02;100.00;93673.25;1065478;55;20957;-83
2020/12/21 02:08:37;;;;;;;;;;;;;;;0.99;100.00;93667.53;1067933;55;20156;-83
2020/12/21 02:09:38;;;;;;;;;;;;;;;0.94;100.00;93670.44;1067687;55;20157;-83
2020/12/21 02:10:39;;;;;;;;;;;;;;;0.98;100.00;93673.91;1063377;55;20154;-83
2020/12/21 02:11:39;;;;;;;;;;;;;;;0.97;100.00;93669.00;1063335;55;20564;-83
2020/12/21 02:12:40;;;;;;;;;;;;;;;0.91;100.00;93671.09;1065549;55;20704;-84
2020/12/21 02:13:41;;;;;;;;;;;;;;;0.94;100.00;93667.81;1065478;55;20205;-84
2020/12/21 02:14:41;;;;;;;;;;;;;;;1.06;100.00;93672.22;1067734;55;20273;-84
2020/12/21 02:15:42;;;;;;;;;;;;;;;1.04;100.00;93676.28;1067776;55;20195;-82
2020/12/21 02:16:42;;;;;;;;;;;;;;;1.10;100.00;93669.66;1065575;55;20154;-82
2020/12/21 02:17:43;;;;;;;;;;;;;;;0.99;100.00;93666.78;1067717;55;20176;-83
2020/12/21 02:18:43;;;;;;;;;;;;;;;0.94;100.00;93667.81;1069886;55;20161;-83
2020/12/21 02:19:44;;;;;;;;;;;;;;;0.88;100.00;93658.66;1067799;55;20180;-83
2020/12/21 02:20:44;;;;;;;;;;;;;;;0.91;100.00;93650.06;1063365;55;20720;-81
2020/12/21 02:21:46;;;;;;;;;;;;;;;0.82;100.00;93659.22;1065704;55;20243;-85
2020/12/21 02:22:46;;;;;;;;;;;;;;;0.83;100.00;93653.63;1067736;55;20160;-81
2020/12/21 02:23:47;;;;;;;;;;;;;;;0.74;100.00;93645.13;1063317;55;20610;-83
2020/12/21 02:24:47;;;;;;;;;;;;;;;0.67;100.00;93642.34;1061180;56;20658;-82
2020/12/21 02:25:48;;;;;;;;;;;;;;;0.64;100.00;93646.41;1063917;55;20181;-84
2020/12/21 02:26:48;;;;;;;;;;;;;;;0.63;100.00;93649.41;1068076;55;20715;-83
2020/12/21 02:27:49;;;;;;;;;;;;;;;0.61;100.00;93654.22;1069849;55;20157;-83
2020/12/21 02:28:59;;;;;;;;;;;;;;;0.47;100.00;93649.38;1067605;55;20967;-83
2020/12/21 02:29:59;;;;;;;;;;;;;;;0.46;100.00;93645.22;1063745;55;20255;-85
2020/12/21 02:31:01;;;;;;;;;;;;;;;0.41;100.00;93650.75;1065611;55;20224;-82
2020/12/21 02:32:01;;;;;;;;;;;;;;;0.45;100.00;93654.22;1067920;55;20622;-82
2020/12/21 02:33:06;;;;;;;;;;;;;;;0.43;100.00;93649.28;1065493;55;20192;-82
2020/12/21 02:34:08;;;;;;;;;;;;;;;0.41;100.00;93642.84;1065850;55;20166;-84
2020/12/21 02:35:09;;;;;;;;;;;;;;;0.35;100.00;93646.81;1065551;55;20595;-81
2020/12/21 02:36:09;;;;;;;;;;;;;;;0.35;100.00;93646.81;1065493;55;20588;-83
2020/12/21 02:37:10;;;;;;;;;;;;;;;0.36;100.00;93648.38;1067641;55;20180;-82
2020/12/21 02:38:11;;;;;;;;;;;;;;;0.27;100.00;93643.25;1066667;55;20618;-82
2020/12/21 02:39:12;;;;;;;;;;;;;;;0.25;100.00;93650.72;1067797;55;20979;-83
2020/12/21 02:40:13;;;;;;;;;;;;;;;0.23;100.00;93648.44;1065558;55;20260;-83
2020/12/21 02:41:14;;;;;;;;;;;;;;;0.22;100.00;93646.91;1063519;55;20259;-83
2020/12/21 02:42:15;;;;;;;;;;;;;;;0.18;100.00;93643.41;1062725;55;20192;-82
2020/12/21 02:43:16;;;;;;;;;;;;;;;0.19;100.00;93642.31;1063388;55;20173;-83
2020/12/21 02:44:16;;;;;;;;;;;;;;;0.18;100.00;93637.41;1064802;55;20158;-82
2020/12/21 02:45:17;;;;;;;;;;;;;;;0.16;100.00;93650.09;1065558;55;20180;-83
2020/12/21 02:46:17;;;;;;;;;;;;;;;0.03;100.00;93640.75;1063437;55;20146;-87
2020/12/21 02:47:18;;;;;;;;;;;;;;;0.05;100.00;93651.69;1063399;55;20165;-82
2020/12/21 02:48:19;;;;;;;;;;;;;;;0.11;100.00;93645.84;1063286;55;20158;-83
2020/12/21 02:49:20;;;;;;;;;;;;;;;0.03;100.00;93651.25;1065416;55;20259;-84
2020/12/21 02:50:21;;;;;;;;;;;;;;;-0.02;100.00;93644.37;1063269;55;20169;-82
2020/12/21 02:51:21;;;;;;;;;;;;;;;-0.05;100.00;93653.69;1065661;55;20149;-82
2020/12/21 02:52:23;;;;;;;;;;;;;;;-0.09;100.00;93641.56;1065109;55;20188;-84
2020/12/21 02:53:23;;;;;;;;;;;;;;;-0.08;100.00;93649.12;1065556;55;21047;-84
2020/12/21 02:54:24;;;;;;;;;;;;;;;-0.09;100.00;93649.44;1065227;55;20154;-84
2020/12/21 02:55:24;;;;;;;;;;;;;;;-0.07;100.00;93649.88;1067697;55;20158;-86
2020/12/21 02:56:25;;;;;;;;;;;;;;;-0.12;100.00;93653.53;1069926;55;20197;-82
2020/12/21 02:57:25;;;;;;;;;;;;;;;-0.11;100.00;93649.78;1065579;55;20177;-82
2020/12/21 02:58:26;;;;;;;;;;;;;;;-0.15;100.00;93642.91;1063299;55;20154;-82
2020/12/21 02:59:26;;;;;;;;;;;;;;;-0.18;100.00;93656.69;1065070;55;20247;-84
2020/12/21 03:00:27;;;;;;;;;;;;;;;-0.24;100.00;93653.56;1065615;55;20161;-81
2020/12/21 03:01:27;;;;;;;;;;;;;;;-0.19;100.00;93653.31;1067523;55;20755;-84
2020/12/21 03:02:27;;;;;;;;;;;;;;;-0.19;100.00;93645.44;1065421;55;20161;-83
2020/12/21 03:03:28;;;;;;;;;;;;;;;-0.17;100.00;93655.62;1065540;55;20166;-84
2020/12/21 03:04:28;;;;;;;;;;;;;;;-0.28;100.00;93652.69;1065522;55;20149;-82
2020/12/21 03:05:29;;;;;;;;;;;;;;;-0.33;100.00;93658.19;1063250;56;20165;-82
2020/12/21 03:06:30;;;;;;;;;;;;;;;-0.33;100.00;93651.06;1063403;55;20161;-85
2020/12/21 03:07:31;;;;;;;;;;;;;;;-0.32;100.00;93646.56;1065484;55;20645;-83
2020/12/21 03:08:32;;;;;;;;;;;;;;;-0.29;100.00;93648.53;1063474;55;20162;-82
2020/12/21 03:09:33;;;;;;;;;;;;;;;-0.27;100.00;93643.72;1063395;55;21011;-82
2020/12/21 03:10:36;;;;;;;;;;;;;;;-0.33;100.00;93645.06;1065585;55;20203;-82
2020/12/21 03:11:36;;;;;;;;;;;;;;;-0.42;100.00;93647.06;1067807;55;20272;-82
2020/12/21 03:12:37;;;;;;;;;;;;;;;-0.38;100.00;93647.91;1069305;55;20304;-83
2020/12/21 03:13:37;;;;;;;;;;;;;;;-0.40;100.00;93640.34;1065345;55;20238;-84
2020/12/21 03:14:38;;;;;;;;;;;;;;;-0.39;100.00;93646.41;1065521;55;20166;-83
2020/12/21 03:15:38;;;;;;;;;;;;;;;-0.44;100.00;93649.22;1065505;55;20149;-83
2020/12/21 03:16:39;;;;;;;;;;;;;;;-0.42;100.00;93639.16;1065528;55;20193;-82
2020/12/21 03:17:40;;;;;;;;;;;;;;;-0.40;100.00;93645.59;1065989;55;20173;-85
2020/12/21 03:18:42;;;;;;;;;;;;;;;-0.35;100.00;93639.34;1068231;55;20173;-82
2020/12/21 03:19:42;;;;;;;;;;;;;;;-0.34;100.00;93648.78;1068149;55;20154;-84
2020/12/21 03:20:44;;;;;;;;;;;;;;;-0.41;100.00;93644.09;1068185;55;20188;-84
2020/12/21 03:21:46;;;;;;;;;;;;;;;-0.46;100.00;93641.69;1067952;55;20156;-83
2020/12/21 03:22:49;;;;;;;;;;;;;;;-0.42;100.00;93644.44;1066206;55;20157;-84
2020/12/21 03:23:50;;;;;;;;;;;;;;;-0.49;100.00;93644.97;1067976;55;20168;-81
2020/12/21 03:24:52;;;;;;;;;;;;;;;-0.52;100.00;93645.66;1068167;55;20183;-82
2020/12/21 03:25:52;;;;;;;;;;;;;;;-0.48;100.00;93651.00;1065949;55;20177;-83
2020/12/21 03:26:53;;;;;;;;;;;;;;;-0.50;100.00;93651.34;1065846;55;20161;-83
2020/12/21 03:27:54;;;;;;;;;;;;;;;-0.55;100.00;93651.56;1068164;55;20188;-82
2020/12/21 03:28:55;;;;;;;;;;;;;;;-0.53;100.00;93647.53;1067976;55;20176;-83
2020/12/21 03:29:57;;;;;;;;;;;;;;;-0.51;100.00;93647.19;1065820;55;20176;-83
2020/12/21 03:30:57;;;;;;;;;;;;;;;-0.50;100.00;93640.84;1063738;55;20161;-82
2020/12/21 03:31:58;;;;;;;;;;;;;;;-0.47;100.00;93644.66;1063900;55;20157;-83
2020/12/21 03:32:58;;;;;;;;;;;;;;;-0.53;100.00;93639.66;1063678;55;20169;-83
2020/12/21 03:33:59;;;;;;;;;;;;;;;-0.53;100.00;93644.13;1065902;55;20200;-83
2020/12/21 03:35:00;;;;;;;;;;;;;;;-0.56;100.00;93642.94;1063740;55;20681;-82
2020/12/21 03:36:01;;;;;;;;;;;;;;;-0.59;100.00;93643.59;1068207;55;20216;-82
2020/12/21 03:37:02;;;;;;;;;;;;;;;-0.62;100.00;93638.22;1067964;55;21273;-83
2020/12/21 03:38:04;;;;;;;;;;;;;;;-0.63;100.00;93640.09;1068189;55;20639;-83
2020/12/21 03:39:06;;;;;;;;;;;;;;;-0.54;100.00;93639.97;1068162;55;20641;-84
2020/12/21 03:40:07;;;;;;;;;;;;;;;-0.67;100.00;93638.47;1063719;55;20221;-84
2020/12/21 03:41:09;;;;;;;;;;;;;;;-0.70;100.00;93639.13;1065950;55;22154;-81
2020/12/21 03:42:09;;;;;;;;;;;;;;;-0.79;100.00;93637.41;1068096;55;20184;-82
2020/12/21 03:43:10;;;;;;;;;;;;;;;-0.80;100.00;93632.47;1070144;55;20609;-83
2020/12/21 03:44:11;;;;;;;;;;;;;;;-0.81;100.00;93636.97;1068154;55;20149;-83
2020/12/21 03:45:11;;;;;;;;;;;;;;;-0.78;100.00;93633.69;1068085;55;20597;-84
2020/12/21 03:46:12;;;;;;;;;;;;;;;-0.80;100.00;93635.09;1065836;55;20189;-85
2020/12/21 03:47:13;;;;;;;;;;;;;;;-0.88;100.00;93630.72;1065895;55;20192;-84
2020/12/21 03:48:13;;;;;;;;;;;;;;;-0.82;100.00;93632.81;1066002;55;20173;-83
2020/12/21 03:49:14;;;;;;;;;;;;;;;-0.80;100.00;93629.84;1066089;55;20166;-84
2020/12/21 03:50:14;;;;;;;;;;;;;;;-0.92;99.76;93629.84;1066012;55;20185;-83
2020/12/21 03:51:15;;;;;;;;;;;;;;;-0.85;100.00;93632.69;1065839;55;20149;-83
2020/12/21 03:52:16;;;;;;;;;;;;;;;-0.80;99.63;93630.59;1067408;55;20164;-83
2020/12/21 03:53:16;;;;;;;;;;;;;;;-0.83;99.96;93633.16;1066003;55;20145;-85
2020/12/21 03:54:16;;;;;;;;;;;;;;;-0.84;100.00;93626.34;1070332;55;20243;-86
2020/12/21 03:55:17;;;;;;;;;;;;;;;-0.87;100.00;93619.16;1070297;55;20610;-82
2020/12/21 03:56:18;;;;;;;;;;;;;;;-0.93;100.00;93623.84;1065900;55;20157;-82
2020/12/21 03:57:20;;;;;;;;;;;;;;;-0.93;100.00;93623.84;1066054;55;20161;-81
2020/12/21 03:58:20;;;;;;;;;;;;;;;-0.98;100.00;93624.06;1070298;55;20675;-84
2020/12/21 03:59:21;;;;;;;;;;;;;;;-0.95;100.00;93620.03;1070097;55;20189;-82
2020/12/21 04:00:21;;;;;;;;;;;;;;;-0.92;100.00;93624.59;1069931;55;20239;-83
2020/12/21 04:01:22;;;;;;;;;;;;;;;-0.90;100.00;93625.81;1070228;55;20248;-82
2020/12/21 04:02:22;;;;;;;;;;;;;;;-0.87;100.00;93621.78;1070272;55;20148;-82
2020/12/21 04:03:23;;;;;;;;;;;;;;;-0.84;100.00;93618.47;1065925;55;20157;-83
2020/12/21 04:04:23;;;;;;;;;;;;;;;-0.87;100.00;93630.41;1068075;55;20164;-82
2020/12/21 04:05:24;;;;;;;;;;;;;;;-0.80;100.00;93616.72;1070203;55;20187;-84
2020/12/21 04:06:24;;;;;;;;;;;;;;;-0.77;100.00;93619.44;1070339;55;20152;-83
2020/12/21 04:07:25;;;;;;;;;;;;;;;-0.79;100.00;93624.28;1068066;55;20161;-82
2020/12/21 04:08:25;;;;;;;;;;;;;;;-0.73;100.00;93626.69;1068166;55;20200;-82
2020/12/21 04:09:26;;;;;;;;;;;;;;;-0.79;100.00;93636.63;1068106;55;20261;-82
2020/12/21 04:10:26;;;;;;;;;;;;;;;-0.78;100.00;93628.44;1065784;55;20185;-83
2020/12/21 04:11:27;;;;;;;;;;;;;;;-0.78;100.00;93633.69;1068019;55;20149;-83
2020/12/21 04:12:28;;;;;;;;;;;;;;;-0.76;100.00;93630.72;1069796;55;20203;-82
2020/12/21 04:13:29;;;;;;;;;;;;;;;-0.69;100.00;93624.91;1067988;55;20609;-82
2020/12/21 04:14:29;;;;;;;;;;;;;;;-0.61;100.00;93624.03;1065872;55;20170;-83
2020/12/21 04:15:30;;;;;;;;;;;;;;;-0.62;100.00;93628.50;1065686;55;20158;-84
2020/12/21 04:16:30;;;;;;;;;;;;;;;-0.49;100.00;93628.47;1065703;55;20241;-81
2020/12/21 04:17:31;;;;;;;;;;;;;;;-0.61;100.00;93619.53;1065600;55;20220;-85
2020/12/21 04:18:32;;;;;;;;;;;;;;;-0.53;100.00;93628.34;1065785;55;20162;-81
2020/12/21 04:19:32;;;;;;;;;;;;;;;-0.50;100.00;93627.69;1067957;55;20184;-84
2020/12/21 04:20:33;;;;;;;;;;;;;;;-0.42;100.00;93633.94;1070141;55;20161;-83
2020/12/21 04:21:33;;;;;;;;;;;;;;;-0.41;100.00;93630.94;1067954;55;20149;-83
2020/12/21 04:22:34;;;;;;;;;;;;;;;-0.35;100.00;93632.25;1063722;55;20150;-83
2020/12/21 04:23:36;;;;;;;;;;;;;;;-0.24;100.00;93626.53;1066073;55;20244;-82
2020/12/21 04:24:37;;;;;;;;;;;;;;;-0.22;100.00;93626.94;1067907;55;20188;-81
2020/12/21 04:25:37;;;;;;;;;;;;;;;-0.23;100.00;93628.06;1067908;55;20153;-82
2020/12/21 04:26:38;;;;;;;;;;;;;;;-0.27;100.00;93626.09;1065867;55;20189;-82
2020/12/21 04:27:38;;;;;;;;;;;;;;;-0.16;100.00;93633.50;1065763;55;20161;-82
2020/12/21 04:28:39;;;;;;;;;;;;;;;-0.14;100.00;93626.81;1065548;55;20158;-84
2020/12/21 04:29:40;;;;;;;;;;;;;;;-0.11;100.00;93620.13;1068024;55;20161;-84
2020/12/21 04:30:40;;;;;;;;;;;;;;;-0.09;100.00;93616.06;1067888;55;20161;-83
2020/12/21 04:31:40;;;;;;;;;;;;;;;-0.05;100.00;93619.53;1067837;55;20161;-84
2020/12/21 04:32:42;;;;;;;;;;;;;;;-0.05;100.00;93610.88;1068113;55;20192;-81
2020/12/21 04:33:43;;;;;;;;;;;;;;;-0.06;100.00;93615.38;1068330;55;21177;-83
2020/12/21 04:34:45;;;;;;;;;;;;;;;-0.03;100.00;93608.69;1070255;55;20190;-83
2020/12/21 04:35:46;;;;;;;;;;;;;;;-0.04;100.00;93609.81;1070185;55;20180;-83
2020/12/21 04:36:46;;;;;;;;;;;;;;;-0.09;100.00;93615.28;1065738;55;20180;-83
2020/12/21 04:37:47;;;;;;;;;;;;;;;-0.12;100.00;93606.22;1063715;55;20573;-83
2020/12/21 04:38:47;;;;;;;;;;;;;;;-0.14;100.00;93612.91;1067947;55;20195;-82
2020/12/21 04:39:48;;;;;;;;;;;;;;;-0.16;100.00;93608.00;1070212;55;20184;-82
2020/12/21 04:40:54;;;;;;;;;;;;;;;-0.04;100.00;93605.31;1065819;55;20165;-83
2020/12/21 04:41:55;;;;;;;;;;;;;;;-0.05;100.00;93601.13;1066292;55;20153;-83
2020/12/21 04:42:58;;;;;;;;;;;;;;;-0.11;100.00;93607.75;1067865;55;20296;-84
2020/12/21 04:43:59;;;;;;;;;;;;;;;-0.11;100.00;93597.25;1065906;55;20653;-83
2020/12/21 04:45:00;;;;;;;;;;;;;;;-0.07;100.00;93597.34;1063725;55;20157;-83
2020/12/21 04:46:04;;;;;;;;;;;;;;;-0.05;100.00;93600.38;1063831;55;20288;-82
2020/12/21 04:47:06;;;;;;;;;;;;;;;-0.09;100.00;93596.88;1068153;55;20188;-83
2020/12/21 04:48:09;;;;;;;;;;;;;;;-0.17;100.00;93608.34;1070120;55;20641;-83
2020/12/21 04:49:10;;;;;;;;;;;;;;;-0.18;100.00;93586.53;1070192;55;20244;-82
2020/12/21 04:50:11;;;;;;;;;;;;;;;-0.20;100.00;93595.88;1070061;55;20261;-83
2020/12/21 04:51:15;;;;;;;;;;;;;;;-0.21;100.00;93592.47;1067967;55;20640;-82
2020/12/21 04:52:16;;;;;;;;;;;;;;;-0.24;100.00;93597.63;1067989;55;20617;-83
2020/12/21 04:53:17;;;;;;;;;;;;;;;-0.26;100.00;93597.97;1070260;55;20187;-83
2020/12/21 04:54:18;;;;;;;;;;;;;;;-0.27;100.00;93596.44;1068108;55;20660;-84
2020/12/21 04:55:20;;;;;;;;;;;;;;;-0.22;100.00;93600.69;1068012;55;20305;-83
2020/12/21 04:56:20;;;;;;;;;;;;;;;-0.15;100.00;93595.62;1065885;55;20262;-83
2020/12/21 04:57:21;;;;;;;;;;;;;;;-0.18;100.00;93598.91;1063644;55;20154;-83
2020/12/21 04:58:23;;;;;;;;;;;;;;;-0.22;100.00;93603.31;1061603;55;20162;-84
2020/12/21 04:59:23;;;;;;;;;;;;;;;-0.17;100.00;93608.34;1063779;55;20158;-83
2020/12/21 05:00:25;;;;;;;;;;;;;;;-0.22;100.00;93598.84;1065920;55;20165;-82
2020/12/21 05:01:25;;;;;;;;;;;;;;;-0.18;100.00;93606.78;1068071;55;20617;-82
2020/12/21 05:02:26;;;;;;;;;;;;;;;-0.11;100.00;93607.00;1068175;55;20157;-82
2020/12/21 05:03:26;;;;;;;;;;;;;;;-0.10;100.00;93598.75;1065818;55;20157;-83
2020/12/21 05:04:27;;;;;;;;;;;;;;;-0.13;100.00;93596.81;1065703;55;20161;-83
2020/12/21 05:05:34;;;;;;;;;;;;;;;-0.20;100.00;93601.13;1065885;55;20173;-81
2020/12/21 05:06:35;;;;;;;;;;;;;;;-0.17;100.00;93600.47;1066079;55;20283;-82
2020/12/21 05:07:35;;;;;;;;;;;;;;;-0.10;100.00;93600.63;1065840;55;20180;-83
2020/12/21 05:08:36;;;;;;;;;;;;;;;-0.11;100.00;93607.75;1065872;55;20168;-83
2020/12/21 05:09:36;;;;;;;;;;;;;;;-0.14;100.00;93605.03;1063668;55;20664;-82
2020/12/21 05:10:38;;;;;;;;;;;;;;;-0.11;100.00;93613.00;1065848;55;20153;-82
2020/12/21 05:11:38;;;;;;;;;;;;;;;-0.05;100.00;93611.66;1067991;55;21258;-83
2020/12/21 05:12:39;;;;;;;;;;;;;;;-0.11;100.00;93609.62;1065445;55;20161;-83
2020/12/21 05:13:39;;;;;;;;;;;;;;;-0.08;100.00;93611.56;1065865;55;20181;-82
2020/12/21 05:14:40;;;;;;;;;;;;;;;-0.10;100.00;93608.50;1067937;55;20153;-83
2020/12/21 05:15:40;;;;;;;;;;;;;;;-0.10;100.00;93608.50;1063648;55;20243;-81